sensor_id;sensor_type;location;lat;lon;timestamp;P1;durP1;ratioP1;P2;durP2;ratioP2
46180;SDS011;58963;50.438;30.594;2022-07-29T00:05:05;5.72;;;4.03;;
46180;SDS011;58963;50.438;30.594;2022-07-29T00:10:24;8.45;;;3.70;;
46180;SDS011;58963;50.438;30.594;2022-07-29T00:15:43;5.93;;;3.53;;
46180;SDS011;58963;50.438;30.594;2022-07-29T00:21:03;6.60;;;4.57;;
46180;SDS011;58963;50.438;30.594;2022-07-29T00:26:22;9.30;;;4.60;;
46180;SDS011;58963;50.438;30.594;2022-07-29T00:31:41;8.25;;;4.40;;
46180;SDS011;58963;50.438;30.594;2022-07-29T00:37:00;8.23;;;5.50;;
46180;SDS011;58963;50.438;30.594;2022-07-29T00:42:19;7.72;;;4.30;;
46180;SDS011;58963;50.438;30.594;2022-07-29T00:47:38;6.40;;;4.25;;
46180;SDS011;58963;50.438;30.594;2022-07-29T00:52:58;7.90;;;4.60;;
46180;SDS011;58963;50.438;30.594;2022-07-29T00:58:18;9.15;;;5.03;;
46180;SDS011;58963;50.438;30.594;2022-07-29T01:03:38;10.73;;;4.97;;
46180;SDS011;58963;50.438;30.594;2022-07-29T01:08:57;9.23;;;5.00;;
46180;SDS011;58963;50.438;30.594;2022-07-29T01:14:17;7.93;;;5.15;;
46180;SDS011;58963;50.438;30.594;2022-07-29T01:19:51;7.75;;;4.68;;
46180;SDS011;58963;50.438;30.594;2022-07-29T01:30:57;9.77;;;5.55;;
46180;SDS011;58963;50.438;30.594;2022-07-29T01:36:40;7.97;;;5.85;;
46180;SDS011;58963;50.438;30.594;2022-07-29T01:42:08;8.88;;;6.25;;
46180;SDS011;58963;50.438;30.594;2022-07-29T01:53:29;11.32;;;6.47;;
46180;SDS011;58963;50.438;30.594;2022-07-29T01:58:54;10.27;;;6.18;;
46180;SDS011;58963;50.438;30.594;2022-07-29T02:04:15;7.72;;;6.15;;
46180;SDS011;58963;50.438;30.594;2022-07-29T02:09:36;7.47;;;6.38;;
46180;SDS011;58963;50.438;30.594;2022-07-29T02:14:59;10.10;;;5.93;;
46180;SDS011;58963;50.438;30.594;2022-07-29T02:20:22;8.73;;;6.20;;
46180;SDS011;58963;50.438;30.594;2022-07-29T02:25:43;14.52;;;7.18;;
46180;SDS011;58963;50.438;30.594;2022-07-29T02:31:03;12.05;;;6.07;;
46180;SDS011;58963;50.438;30.594;2022-07-29T02:36:25;11.38;;;6.63;;
46180;SDS011;58963;50.438;30.594;2022-07-29T02:41:50;10.48;;;5.97;;
46180;SDS011;58963;50.438;30.594;2022-07-29T02:47:24;7.95;;;6.50;;
46180;SDS011;58963;50.438;30.594;2022-07-29T02:58:21;8.57;;;6.63;;
46180;SDS011;58963;50.438;30.594;2022-07-29T03:04:00;16.30;;;7.13;;
46180;SDS011;58963;50.438;30.594;2022-07-29T03:09:23;10.57;;;6.43;;
46180;SDS011;58963;50.438;30.594;2022-07-29T03:14:44;10.43;;;6.50;;
46180;SDS011;58963;50.438;30.594;2022-07-29T03:20:03;8.57;;;6.18;;
46180;SDS011;58963;50.438;30.594;2022-07-29T03:25:24;17.02;;;6.60;;
46180;SDS011;58963;50.438;30.594;2022-07-29T03:30:45;8.90;;;6.72;;
46180;SDS011;58963;50.438;30.594;2022-07-29T03:36:05;14.30;;;9.30;;
46180;SDS011;58963;50.438;30.594;2022-07-29T03:41:24;13.77;;;8.85;;
46180;SDS011;58963;50.438;30.594;2022-07-29T03:46:44;13.63;;;8.43;;
46180;SDS011;58963;50.438;30.594;2022-07-29T03:52:07;16.85;;;8.63;;
46180;SDS011;58963;50.438;30.594;2022-07-29T03:57:27;13.02;;;7.68;;
46180;SDS011;58963;50.438;30.594;2022-07-29T04:02:49;12.27;;;6.68;;
46180;SDS011;58963;50.438;30.594;2022-07-29T04:08:09;12.82;;;6.95;;
46180;SDS011;58963;50.438;30.594;2022-07-29T04:13:29;14.43;;;7.85;;
46180;SDS011;58963;50.438;30.594;2022-07-29T04:18:48;9.98;;;4.15;;
46180;SDS011;58963;50.438;30.594;2022-07-29T04:24:08;9.18;;;3.95;;
46180;SDS011;58963;50.438;30.594;2022-07-29T04:29:27;8.05;;;3.50;;
46180;SDS011;58963;50.438;30.594;2022-07-29T04:34:47;5.50;;;3.40;;
46180;SDS011;58963;50.438;30.594;2022-07-29T04:40:06;9.70;;;3.97;;
46180;SDS011;58963;50.438;30.594;2022-07-29T04:45:26;5.25;;;3.58;;
46180;SDS011;58963;50.438;30.594;2022-07-29T04:50:46;6.25;;;3.40;;
46180;SDS011;58963;50.438;30.594;2022-07-29T04:56:06;9.07;;;3.38;;
46180;SDS011;58963;50.438;30.594;2022-07-29T05:01:25;7.57;;;3.30;;
46180;SDS011;58963;50.438;30.594;2022-07-29T05:06:44;5.25;;;3.15;;
46180;SDS011;58963;50.438;30.594;2022-07-29T05:12:04;7.32;;;2.70;;
46180;SDS011;58963;50.438;30.594;2022-07-29T05:17:23;6.88;;;2.30;;
46180;SDS011;58963;50.438;30.594;2022-07-29T05:22:43;6.22;;;2.45;;
46180;SDS011;58963;50.438;30.594;2022-07-29T05:28:02;7.95;;;2.67;;
46180;SDS011;58963;50.438;30.594;2022-07-29T05:33:21;9.30;;;3.25;;
46180;SDS011;58963;50.438;30.594;2022-07-29T05:38:40;4.97;;;2.50;;
46180;SDS011;58963;50.438;30.594;2022-07-29T05:44:00;9.48;;;4.22;;
46180;SDS011;58963;50.438;30.594;2022-07-29T05:49:19;4.03;;;2.45;;
46180;SDS011;58963;50.438;30.594;2022-07-29T05:54:38;4.68;;;2.83;;
46180;SDS011;58963;50.438;30.594;2022-07-29T05:59:58;7.82;;;3.20;;
46180;SDS011;58963;50.438;30.594;2022-07-29T06:05:17;6.30;;;2.58;;
46180;SDS011;58963;50.438;30.594;2022-07-29T06:10:37;8.10;;;3.05;;
46180;SDS011;58963;50.438;30.594;2022-07-29T06:15:57;5.47;;;3.03;;
46180;SDS011;58963;50.438;30.594;2022-07-29T06:21:16;3.97;;;2.30;;
46180;SDS011;58963;50.438;30.594;2022-07-29T06:26:35;4.22;;;2.15;;
46180;SDS011;58963;50.438;30.594;2022-07-29T06:31:54;4.80;;;2.55;;
46180;SDS011;58963;50.438;30.594;2022-07-29T06:37:13;6.53;;;2.40;;
46180;SDS011;58963;50.438;30.594;2022-07-29T06:42:32;5.18;;;2.50;;
46180;SDS011;58963;50.438;30.594;2022-07-29T06:47:52;6.38;;;2.22;;
46180;SDS011;58963;50.438;30.594;2022-07-29T06:53:11;6.75;;;1.73;;
46180;SDS011;58963;50.438;30.594;2022-07-29T06:58:30;7.47;;;2.10;;
46180;SDS011;58963;50.438;30.594;2022-07-29T07:03:49;4.13;;;1.60;;
46180;SDS011;58963;50.438;30.594;2022-07-29T07:09:09;6.82;;;1.95;;
46180;SDS011;58963;50.438;30.594;2022-07-29T07:14:28;4.80;;;1.90;;
46180;SDS011;58963;50.438;30.594;2022-07-29T07:19:47;3.25;;;1.45;;
46180;SDS011;58963;50.438;30.594;2022-07-29T07:25:06;8.50;;;2.45;;
46180;SDS011;58963;50.438;30.594;2022-07-29T07:30:25;3.55;;;1.85;;
46180;SDS011;58963;50.438;30.594;2022-07-29T07:35:46;5.47;;;1.92;;
46180;SDS011;58963;50.438;30.594;2022-07-29T07:41:05;5.38;;;1.80;;
46180;SDS011;58963;50.438;30.594;2022-07-29T07:46:24;5.07;;;1.70;;
46180;SDS011;58963;50.438;30.594;2022-07-29T07:51:44;6.10;;;2.15;;
46180;SDS011;58963;50.438;30.594;2022-07-29T07:57:04;2.65;;;1.45;;
46180;SDS011;58963;50.438;30.594;2022-07-29T08:02:23;2.42;;;1.70;;
46180;SDS011;58963;50.438;30.594;2022-07-29T08:07:46;3.33;;;1.80;;
46180;SDS011;58963;50.438;30.594;2022-07-29T08:13:06;5.55;;;1.80;;
46180;SDS011;58963;50.438;30.594;2022-07-29T08:18:26;4.97;;;1.83;;
46180;SDS011;58963;50.438;30.594;2022-07-29T08:23:48;5.32;;;1.90;;
46180;SDS011;58963;50.438;30.594;2022-07-29T08:29:09;4.15;;;1.77;;
46180;SDS011;58963;50.438;30.594;2022-07-29T08:34:29;3.75;;;1.88;;
46180;SDS011;58963;50.438;30.594;2022-07-29T08:39:49;7.75;;;2.55;;
46180;SDS011;58963;50.438;30.594;2022-07-29T08:45:09;10.05;;;2.67;;
46180;SDS011;58963;50.438;30.594;2022-07-29T08:50:28;11.25;;;4.13;;
46180;SDS011;58963;50.438;30.594;2022-07-29T08:55:48;14.02;;;3.85;;
46180;SDS011;58963;50.438;30.594;2022-07-29T09:01:08;6.93;;;2.72;;
46180;SDS011;58963;50.438;30.594;2022-07-29T09:11:51;6.28;;;2.47;;
46180;SDS011;58963;50.438;30.594;2022-07-29T09:17:12;4.18;;;2.40;;
46180;SDS011;58963;50.438;30.594;2022-07-29T09:22:33;3.50;;;2.00;;
46180;SDS011;58963;50.438;30.594;2022-07-29T09:27:52;6.82;;;1.95;;
46180;SDS011;58963;50.438;30.594;2022-07-29T09:33:11;6.85;;;2.08;;
46180;SDS011;58963;50.438;30.594;2022-07-29T09:38:30;5.00;;;2.38;;
46180;SDS011;58963;50.438;30.594;2022-07-29T09:43:54;6.30;;;2.08;;
46180;SDS011;58963;50.438;30.594;2022-07-29T09:49:17;6.20;;;2.63;;
46180;SDS011;58963;50.438;30.594;2022-07-29T09:54:36;8.90;;;3.10;;
46180;SDS011;58963;50.438;30.594;2022-07-29T09:59:57;4.70;;;1.92;;
46180;SDS011;58963;50.438;30.594;2022-07-29T10:05:19;5.63;;;2.35;;
46180;SDS011;58963;50.438;30.594;2022-07-29T10:10:41;6.25;;;2.75;;
46180;SDS011;58963;50.438;30.594;2022-07-29T10:16:01;4.67;;;2.30;;
46180;SDS011;58963;50.438;30.594;2022-07-29T10:21:21;3.90;;;2.15;;
46180;SDS011;58963;50.438;30.594;2022-07-29T10:26:41;6.30;;;2.38;;
46180;SDS011;58963;50.438;30.594;2022-07-29T10:37:37;6.15;;;2.85;;
46180;SDS011;58963;50.438;30.594;2022-07-29T10:42:58;7.97;;;4.85;;
46180;SDS011;58963;50.438;30.594;2022-07-29T10:48:33;5.95;;;3.38;;
46180;SDS011;58963;50.438;30.594;2022-07-29T10:53:54;5.22;;;3.33;;
46180;SDS011;58963;50.438;30.594;2022-07-29T11:15:54;4.13;;;2.30;;
46180;SDS011;58963;50.438;30.594;2022-07-29T11:32:36;4.60;;;2.60;;
46180;SDS011;58963;50.438;30.594;2022-07-29T11:49:06;4.45;;;2.53;;
46180;SDS011;58963;50.438;30.594;2022-07-29T11:54:31;6.03;;;3.30;;
46180;SDS011;58963;50.438;30.594;2022-07-29T11:59:52;2.97;;;2.30;;
46180;SDS011;58963;50.438;30.594;2022-07-29T12:05:14;3.20;;;2.03;;
46180;SDS011;58963;50.438;30.594;2022-07-29T12:10:34;4.65;;;2.10;;
46180;SDS011;58963;50.438;30.594;2022-07-29T12:15:55;2.97;;;2.25;;
46180;SDS011;58963;50.438;30.594;2022-07-29T12:21:16;6.68;;;2.90;;
46180;SDS011;58963;50.438;30.594;2022-07-29T12:26:36;5.97;;;2.88;;
46180;SDS011;58963;50.438;30.594;2022-07-29T12:32:07;5.53;;;3.10;;
46180;SDS011;58963;50.438;30.594;2022-07-29T12:37:27;5.97;;;3.00;;
46180;SDS011;58963;50.438;30.594;2022-07-29T12:48:35;6.85;;;2.38;;
46180;SDS011;58963;50.438;30.594;2022-07-29T12:54:11;5.32;;;3.03;;
46180;SDS011;58963;50.438;30.594;2022-07-29T12:59:32;4.03;;;2.72;;
46180;SDS011;58963;50.438;30.594;2022-07-29T13:04:58;3.90;;;2.20;;
46180;SDS011;58963;50.438;30.594;2022-07-29T13:10:19;4.53;;;2.70;;
46180;SDS011;58963;50.438;30.594;2022-07-29T13:15:43;4.70;;;2.50;;
46180;SDS011;58963;50.438;30.594;2022-07-29T13:21:13;7.13;;;3.40;;
46180;SDS011;58963;50.438;30.594;2022-07-29T13:26:33;2.58;;;2.38;;
46180;SDS011;58963;50.438;30.594;2022-07-29T13:31:53;7.20;;;3.20;;
46180;SDS011;58963;50.438;30.594;2022-07-29T13:37:12;4.90;;;2.83;;
46180;SDS011;58963;50.438;30.594;2022-07-29T13:42:31;4.00;;;2.70;;
46180;SDS011;58963;50.438;30.594;2022-07-29T13:47:51;4.65;;;2.75;;
46180;SDS011;58963;50.438;30.594;2022-07-29T13:53:10;6.32;;;2.95;;
46180;SDS011;58963;50.438;30.594;2022-07-29T13:58:30;3.90;;;2.88;;
46180;SDS011;58963;50.438;30.594;2022-07-29T14:03:49;3.33;;;2.10;;
46180;SDS011;58963;50.438;30.594;2022-07-29T14:09:08;3.53;;;2.78;;
46180;SDS011;58963;50.438;30.594;2022-07-29T14:14:28;5.85;;;2.67;;
46180;SDS011;58963;50.438;30.594;2022-07-29T14:19:48;9.30;;;2.70;;
46180;SDS011;58963;50.438;30.594;2022-07-29T14:25:08;4.25;;;2.40;;
46180;SDS011;58963;50.438;30.594;2022-07-29T14:30:27;3.45;;;2.78;;
46180;SDS011;58963;50.438;30.594;2022-07-29T14:35:47;7.43;;;2.95;;
46180;SDS011;58963;50.438;30.594;2022-07-29T14:41:06;4.22;;;2.45;;
46180;SDS011;58963;50.438;30.594;2022-07-29T14:46:26;5.28;;;2.38;;
46180;SDS011;58963;50.438;30.594;2022-07-29T14:51:46;4.63;;;3.13;;
46180;SDS011;58963;50.438;30.594;2022-07-29T14:57:06;5.75;;;2.67;;
46180;SDS011;58963;50.438;30.594;2022-07-29T15:02:26;7.65;;;2.90;;
46180;SDS011;58963;50.438;30.594;2022-07-29T15:07:48;3.47;;;2.63;;
46180;SDS011;58963;50.438;30.594;2022-07-29T15:13:07;7.32;;;2.88;;
46180;SDS011;58963;50.438;30.594;2022-07-29T15:18:26;6.50;;;3.00;;
46180;SDS011;58963;50.438;30.594;2022-07-29T15:23:45;5.00;;;2.63;;
46180;SDS011;58963;50.438;30.594;2022-07-29T15:29:04;8.82;;;2.85;;
46180;SDS011;58963;50.438;30.594;2022-07-29T15:34:23;7.15;;;3.03;;
46180;SDS011;58963;50.438;30.594;2022-07-29T15:39:42;3.60;;;2.90;;
46180;SDS011;58963;50.438;30.594;2022-07-29T15:45:02;3.28;;;2.88;;
46180;SDS011;58963;50.438;30.594;2022-07-29T15:50:22;3.28;;;2.55;;
46180;SDS011;58963;50.438;30.594;2022-07-29T15:55:42;5.55;;;2.72;;
46180;SDS011;58963;50.438;30.594;2022-07-29T16:01:01;4.90;;;2.90;;
46180;SDS011;58963;50.438;30.594;2022-07-29T16:06:20;6.80;;;3.38;;
46180;SDS011;58963;50.438;30.594;2022-07-29T16:11:40;3.95;;;2.70;;
46180;SDS011;58963;50.438;30.594;2022-07-29T16:16:59;5.28;;;3.03;;
46180;SDS011;58963;50.438;30.594;2022-07-29T16:22:21;6.93;;;3.47;;
46180;SDS011;58963;50.438;30.594;2022-07-29T16:27:40;11.13;;;6.50;;
46180;SDS011;58963;50.438;30.594;2022-07-29T16:32:59;10.60;;;6.28;;
46180;SDS011;58963;50.438;30.594;2022-07-29T16:38:19;5.00;;;3.63;;
46180;SDS011;58963;50.438;30.594;2022-07-29T16:43:38;6.95;;;3.38;;
46180;SDS011;58963;50.438;30.594;2022-07-29T16:48:58;7.15;;;3.60;;
46180;SDS011;58963;50.438;30.594;2022-07-29T16:54:17;20.70;;;15.82;;
46180;SDS011;58963;50.438;30.594;2022-07-29T16:59:37;13.02;;;8.98;;
46180;SDS011;58963;50.438;30.594;2022-07-29T17:04:56;15.88;;;11.07;;
46180;SDS011;58963;50.438;30.594;2022-07-29T17:10:16;20.70;;;17.23;;
46180;SDS011;58963;50.438;30.594;2022-07-29T17:15:36;8.75;;;4.30;;
46180;SDS011;58963;50.438;30.594;2022-07-29T17:20:55;16.90;;;11.38;;
46180;SDS011;58963;50.438;30.594;2022-07-29T17:26:15;6.82;;;4.55;;
46180;SDS011;58963;50.438;30.594;2022-07-29T17:31:35;7.13;;;4.05;;
46180;SDS011;58963;50.438;30.594;2022-07-29T17:36:54;24.48;;;17.30;;
46180;SDS011;58963;50.438;30.594;2022-07-29T17:42:14;12.07;;;6.18;;
46180;SDS011;58963;50.438;30.594;2022-07-29T17:47:33;5.60;;;4.30;;
46180;SDS011;58963;50.438;30.594;2022-07-29T17:52:55;6.13;;;5.43;;
46180;SDS011;58963;50.438;30.594;2022-07-29T17:58:15;8.73;;;4.40;;
46180;SDS011;58963;50.438;30.594;2022-07-29T18:03:34;7.28;;;5.07;;
46180;SDS011;58963;50.438;30.594;2022-07-29T18:08:53;13.25;;;8.73;;
46180;SDS011;58963;50.438;30.594;2022-07-29T18:14:13;5.72;;;4.35;;
46180;SDS011;58963;50.438;30.594;2022-07-29T18:19:32;9.88;;;4.53;;
46180;SDS011;58963;50.438;30.594;2022-07-29T18:24:51;5.88;;;4.10;;
46180;SDS011;58963;50.438;30.594;2022-07-29T18:30:10;6.07;;;4.57;;
46180;SDS011;58963;50.438;30.594;2022-07-29T18:35:30;8.45;;;4.13;;
46180;SDS011;58963;50.438;30.594;2022-07-29T18:40:49;5.15;;;4.45;;
46180;SDS011;58963;50.438;30.594;2022-07-29T18:46:09;8.02;;;5.53;;
46180;SDS011;58963;50.438;30.594;2022-07-29T18:51:28;8.07;;;5.20;;
46180;SDS011;58963;50.438;30.594;2022-07-29T18:56:47;15.43;;;6.80;;
46180;SDS011;58963;50.438;30.594;2022-07-29T19:02:07;12.65;;;6.18;;
46180;SDS011;58963;50.438;30.594;2022-07-29T19:07:27;7.85;;;6.05;;
46180;SDS011;58963;50.438;30.594;2022-07-29T19:12:47;10.65;;;7.68;;
46180;SDS011;58963;50.438;30.594;2022-07-29T19:18:06;9.18;;;4.80;;
46180;SDS011;58963;50.438;30.594;2022-07-29T19:23:26;11.88;;;5.53;;
46180;SDS011;58963;50.438;30.594;2022-07-29T19:28:48;9.07;;;6.30;;
46180;SDS011;58963;50.438;30.594;2022-07-29T19:34:08;8.48;;;5.43;;
46180;SDS011;58963;50.438;30.594;2022-07-29T19:39:27;9.45;;;7.20;;
46180;SDS011;58963;50.438;30.594;2022-07-29T19:44:46;7.25;;;4.72;;
46180;SDS011;58963;50.438;30.594;2022-07-29T19:50:06;9.60;;;5.28;;
46180;SDS011;58963;50.438;30.594;2022-07-29T19:55:26;11.93;;;4.45;;
46180;SDS011;58963;50.438;30.594;2022-07-29T20:00:45;9.52;;;5.50;;
46180;SDS011;58963;50.438;30.594;2022-07-29T20:06:04;7.50;;;4.70;;
46180;SDS011;58963;50.438;30.594;2022-07-29T20:11:24;6.93;;;4.35;;
46180;SDS011;58963;50.438;30.594;2022-07-29T20:16:44;11.40;;;7.30;;
46180;SDS011;58963;50.438;30.594;2022-07-29T20:22:04;7.30;;;4.80;;
46180;SDS011;58963;50.438;30.594;2022-07-29T20:27:23;7.25;;;4.53;;
46180;SDS011;58963;50.438;30.594;2022-07-29T20:32:42;5.38;;;4.78;;
46180;SDS011;58963;50.438;30.594;2022-07-29T20:38:02;6.35;;;4.45;;
46180;SDS011;58963;50.438;30.594;2022-07-29T20:43:21;6.38;;;5.18;;
46180;SDS011;58963;50.438;30.594;2022-07-29T20:48:40;6.45;;;4.80;;
46180;SDS011;58963;50.438;30.594;2022-07-29T20:54:00;6.55;;;4.85;;
46180;SDS011;58963;50.438;30.594;2022-07-29T20:59:20;6.72;;;4.00;;
46180;SDS011;58963;50.438;30.594;2022-07-29T21:04:39;11.23;;;4.82;;
46180;SDS011;58963;50.438;30.594;2022-07-29T21:10:01;7.10;;;4.22;;
46180;SDS011;58963;50.438;30.594;2022-07-29T21:15:21;5.38;;;4.57;;
46180;SDS011;58963;50.438;30.594;2022-07-29T21:20:40;9.10;;;4.50;;
46180;SDS011;58963;50.438;30.594;2022-07-29T21:25:59;6.15;;;4.00;;
46180;SDS011;58963;50.438;30.594;2022-07-29T21:31:18;7.47;;;4.13;;
46180;SDS011;58963;50.438;30.594;2022-07-29T21:36:37;5.53;;;4.00;;
46180;SDS011;58963;50.438;30.594;2022-07-29T21:41:56;6.15;;;3.80;;
46180;SDS011;58963;50.438;30.594;2022-07-29T21:47:16;9.68;;;4.53;;
46180;SDS011;58963;50.438;30.594;2022-07-29T21:52:35;6.05;;;4.43;;
46180;SDS011;58963;50.438;30.594;2022-07-29T21:57:54;6.40;;;3.92;;
46180;SDS011;58963;50.438;30.594;2022-07-29T22:03:13;7.35;;;4.25;;
46180;SDS011;58963;50.438;30.594;2022-07-29T22:08:33;6.28;;;4.43;;
46180;SDS011;58963;50.438;30.594;2022-07-29T22:13:52;6.00;;;4.15;;
46180;SDS011;58963;50.438;30.594;2022-07-29T22:19:11;6.75;;;4.45;;
46180;SDS011;58963;50.438;30.594;2022-07-29T22:24:32;6.70;;;3.78;;
46180;SDS011;58963;50.438;30.594;2022-07-29T22:29:51;7.30;;;3.90;;
46180;SDS011;58963;50.438;30.594;2022-07-29T22:35:10;5.93;;;3.92;;
46180;SDS011;58963;50.438;30.594;2022-07-29T22:40:30;7.90;;;4.18;;
46180;SDS011;58963;50.438;30.594;2022-07-29T22:45:49;7.22;;;4.18;;
46180;SDS011;58963;50.438;30.594;2022-07-29T22:51:09;6.95;;;4.30;;
46180;SDS011;58963;50.438;30.594;2022-07-29T22:56:28;5.20;;;3.65;;
46180;SDS011;58963;50.438;30.594;2022-07-29T23:01:47;6.43;;;3.60;;
46180;SDS011;58963;50.438;30.594;2022-07-29T23:07:06;4.97;;;3.42;;
46180;SDS011;58963;50.438;30.594;2022-07-29T23:12:25;7.88;;;4.03;;
46180;SDS011;58963;50.438;30.594;2022-07-29T23:17:44;4.93;;;3.30;;
46180;SDS011;58963;50.438;30.594;2022-07-29T23:23:04;7.03;;;3.95;;
46180;SDS011;58963;50.438;30.594;2022-07-29T23:28:23;7.10;;;3.60;;
46180;SDS011;58963;50.438;30.594;2022-07-29T23:33:42;4.70;;;3.63;;
46180;SDS011;58963;50.438;30.594;2022-07-29T23:39:01;5.53;;;2.92;;
46180;SDS011;58963;50.438;30.594;2022-07-29T23:44:20;4.85;;;3.22;;
46180;SDS011;58963;50.438;30.594;2022-07-29T23:49:39;5.40;;;3.55;;
46180;SDS011;58963;50.438;30.594;2022-07-29T23:54:58;4.38;;;3.70;;
